createdAt,value
2019-05-10T00:00:28.231Z,11.50
2019-05-10T00:03:14.732Z,11.50
2019-05-10T00:08:47.259Z,11.50
2019-05-10T00:11:35.266Z,11.40
2019-05-10T00:14:23.227Z,11.40
2019-05-10T00:19:21.488Z,11.30
2019-05-10T00:21:49.905Z,11.20
2019-05-10T00:24:18.313Z,11.20
2019-05-10T00:26:46.717Z,11.20
2019-05-10T00:31:43.201Z,11.20
2019-05-10T00:34:11.612Z,11.20
2019-05-10T00:36:40.009Z,11.20
2019-05-10T00:41:36.497Z,11.30
2019-05-10T00:44:05.181Z,11.20
2019-05-10T00:46:33.581Z,11.20
2019-05-10T00:49:02.260Z,11.20
2019-05-10T00:51:30.665Z,11.20
2019-05-10T00:53:59.086Z,11.20
2019-05-10T00:56:27.483Z,11.20
2019-05-10T00:58:55.904Z,11.20
2019-05-10T01:01:24.301Z,11.20
2019-05-10T01:03:52.742Z,11.20
2019-05-10T01:06:21.151Z,11.20
2019-05-10T01:08:49.560Z,11.20
2019-05-10T01:13:46.047Z,11.20
2019-05-10T01:16:14.475Z,11.20
2019-05-10T01:18:42.880Z,11.20
2019-05-10T01:21:11.293Z,11.20
2019-05-10T01:23:39.711Z,11.20
2019-05-10T01:26:08.168Z,11.10
2019-05-10T01:28:36.592Z,11.00
2019-05-10T01:31:05.004Z,11.00
2019-05-10T01:33:33.416Z,10.90
2019-05-10T01:36:01.824Z,10.90
2019-05-10T01:40:58.303Z,10.80
2019-05-10T01:43:26.813Z,10.70
2019-05-10T01:45:55.220Z,10.70
2019-05-10T01:48:23.620Z,10.70
2019-05-10T01:50:52.038Z,10.60
2019-05-10T01:56:07.874Z,10.70
2019-05-10T01:58:36.268Z,10.60
2019-05-10T02:01:04.686Z,10.50
2019-05-10T02:03:33.084Z,10.50
2019-05-10T02:08:29.591Z,10.50
2019-05-10T02:10:58.005Z,10.40
2019-05-10T02:15:54.491Z,10.40
2019-05-10T02:18:22.909Z,10.40
2019-05-10T02:20:51.317Z,10.40
2019-05-10T02:23:19.729Z,10.40
2019-05-10T02:25:48.140Z,10.30
2019-05-10T02:28:16.728Z,10.30
2019-05-10T02:30:45.141Z,10.30
2019-05-10T02:33:13.574Z,10.30
2019-05-10T02:35:41.982Z,10.20
2019-05-10T02:38:10.382Z,10.20
2019-05-10T02:40:38.793Z,10.20
2019-05-10T02:43:07.224Z,10.20
2019-05-10T02:45:35.624Z,10.20
2019-05-10T02:50:32.185Z,10.10
2019-05-10T02:53:00.938Z,10.00
2019-05-10T02:55:30.211Z,10.00
2019-05-10T02:57:58.624Z,10.00
2019-05-10T03:00:27.366Z,9.90
2019-05-10T03:02:55.840Z,9.90
2019-05-10T03:05:27.151Z,9.90
2019-05-10T03:07:58.276Z,9.80
2019-05-10T03:10:29.809Z,9.80
2019-05-10T03:15:31.104Z,9.80
2019-05-10T03:18:02.537Z,9.80
2019-05-10T03:20:33.047Z,9.70
2019-05-10T03:23:02.149Z,9.70
2019-05-10T03:25:30.550Z,9.70
2019-05-10T03:27:58.980Z,9.70
2019-05-10T03:30:27.548Z,9.70
2019-05-10T03:32:55.955Z,9.70
2019-05-10T03:35:24.810Z,9.60
2019-05-10T03:37:53.346Z,9.60
2019-05-10T03:42:50.405Z,9.50
2019-05-10T03:45:19.650Z,9.50
2019-05-10T03:47:48.072Z,9.60
2019-05-10T03:50:16.537Z,9.60
2019-05-10T03:52:44.958Z,9.60
2019-05-10T03:55:13.347Z,9.50
2019-05-10T03:57:41.810Z,9.40
2019-05-10T04:00:12.346Z,9.40
2019-05-10T04:02:40.758Z,9.40
2019-05-10T04:05:09.750Z,9.40
2019-05-10T04:07:38.231Z,9.30
2019-05-10T04:10:06.870Z,9.30
2019-05-10T04:12:35.283Z,9.30
2019-05-10T04:15:05.825Z,9.30
2019-05-10T04:17:34.243Z,9.30
2019-05-10T04:20:03.003Z,9.30
2019-05-10T04:22:31.417Z,9.40
2019-05-10T04:32:25.787Z,9.60
2019-05-10T04:34:54.184Z,9.80
2019-05-10T04:37:22.600Z,9.90
2019-05-10T04:42:19.077Z,10.10
2019-05-10T04:44:47.502Z,10.20
2019-05-10T04:47:15.973Z,10.30
2019-05-10T04:49:44.393Z,10.40
2019-05-10T04:52:12.792Z,10.50
2019-05-10T04:54:41.198Z,10.60
2019-05-10T04:57:09.601Z,10.70
2019-05-10T04:59:38.016Z,10.90
2019-05-10T05:04:34.509Z,11.10
2019-05-10T05:07:02.938Z,11.20
2019-05-10T05:09:31.397Z,11.20
2019-05-10T05:11:59.808Z,11.30
2019-05-10T05:16:56.315Z,11.30
2019-05-10T05:29:18.804Z,12.40
2019-05-10T05:31:47.209Z,12.70
2019-05-10T05:34:15.625Z,12.90
2019-05-10T05:37:03.409Z,12.90
2019-05-10T05:39:31.911Z,13.00
2019-05-10T05:42:00.312Z,12.90
2019-05-10T05:44:28.720Z,12.80
2019-05-10T05:46:57.142Z,12.90
2019-05-10T05:49:25.567Z,13.00
2019-05-10T05:51:54.014Z,13.00
2019-05-10T05:56:53.101Z,13.00
2019-05-10T05:59:23.933Z,12.90
2019-05-10T06:01:52.159Z,12.90
2019-05-10T06:04:20.560Z,12.90
2019-05-10T06:06:53.692Z,13.00
2019-05-10T06:11:47.221Z,13.30
2019-05-10T06:16:45.133Z,13.60
2019-05-10T06:19:13.853Z,13.60
2019-05-10T06:21:42.262Z,13.60
2019-05-10T06:24:13.518Z,13.50
2019-05-10T06:26:40.801Z,13.40
2019-05-10T06:29:16.347Z,13.50
2019-05-10T06:31:39.480Z,13.60
2019-05-10T06:34:07.884Z,13.70
2019-05-10T06:36:36.287Z,13.80
2019-05-10T06:41:34.521Z,13.80
2019-05-10T06:44:02.938Z,13.70
2019-05-10T06:46:31.342Z,13.60
2019-05-10T06:49:07.318Z,13.50
2019-05-10T06:51:30.064Z,13.40
2019-05-10T06:53:58.481Z,13.40
2019-05-10T06:56:26.885Z,13.50
2019-05-10T06:58:55.309Z,13.50
2019-05-10T07:03:51.784Z,13.60
2019-05-10T07:06:20.218Z,13.50
2019-05-10T07:08:51.768Z,13.60
2019-05-10T07:11:18.853Z,13.70
2019-05-10T07:13:52.155Z,13.70
2019-05-10T07:16:23.965Z,13.70
2019-05-10T07:18:47.560Z,13.70
2019-05-10T07:21:15.968Z,13.60
2019-05-10T07:23:46.580Z,13.60
2019-05-10T07:26:17.533Z,13.60
2019-05-10T07:28:44.636Z,13.70
2019-05-10T07:31:13.048Z,13.80
2019-05-10T07:33:41.448Z,13.80
2019-05-10T07:36:14.728Z,13.90
2019-05-10T07:38:40.012Z,14.00
2019-05-10T07:41:08.425Z,14.20
2019-05-10T07:43:36.825Z,14.20
2019-05-10T07:46:06.975Z,14.20
2019-05-10T07:48:35.391Z,14.20
2019-05-10T07:51:03.868Z,14.30
2019-05-10T07:53:32.268Z,14.40
2019-05-10T07:56:05.970Z,14.40
2019-05-10T07:58:30.845Z,14.50
2019-05-10T08:00:59.248Z,14.40
2019-05-10T08:03:29.851Z,14.40
2019-05-10T08:11:15.022Z,14.40
2019-05-10T08:13:43.428Z,14.40
2019-05-10T08:19:02.343Z,14.20
2019-05-10T08:21:32.249Z,14.10
2019-05-10T08:24:07.181Z,14.00
2019-05-10T08:29:02.139Z,14.30
2019-05-10T08:31:33.940Z,14.80
2019-05-10T08:34:02.202Z,16.10
2019-05-10T08:36:32.152Z,17.00
2019-05-10T08:39:10.060Z,18.80
2019-05-10T08:41:32.565Z,20.70
2019-05-10T08:44:04.642Z,21.10
2019-05-10T08:46:40.064Z,21.80
2019-05-10T08:49:02.073Z,22.20
2019-05-10T08:51:32.313Z,21.60
2019-05-10T08:54:01.762Z,21.20
2019-05-10T08:56:33.078Z,21.40
2019-05-10T08:59:03.667Z,20.90
2019-05-10T09:01:38.446Z,20.00
2019-05-10T09:06:32.769Z,18.70
2019-05-10T09:09:03.585Z,18.20
2019-05-10T09:11:32.830Z,18.00
2019-05-10T09:14:03.033Z,18.00
2019-05-10T09:16:39.189Z,18.50
2019-05-10T09:19:02.542Z,18.70
2019-05-10T09:21:32.167Z,18.40
2019-05-10T09:24:03.407Z,19.00
2019-05-10T09:26:32.237Z,20.60
2019-05-10T09:29:01.687Z,22.40
2019-05-10T09:31:32.516Z,22.90
2019-05-10T09:36:49.523Z,22.90
2019-05-10T09:39:21.642Z,22.20
2019-05-10T09:41:48.055Z,22.20
2019-05-10T09:46:44.548Z,21.60
2019-05-10T09:49:18.131Z,21.60
2019-05-10T09:54:11.174Z,22.40
2019-05-10T09:56:44.443Z,23.70
2019-05-10T09:59:09.745Z,24.60
2019-05-10T10:01:38.264Z,25.00
2019-05-10T10:04:06.729Z,24.50
2019-05-10T10:06:36.910Z,23.40
2019-05-10T10:11:36.161Z,21.30
2019-05-10T10:16:32.713Z,21.50
2019-05-10T10:19:01.129Z,22.60
2019-05-10T10:21:34.834Z,22.70
2019-05-10T10:24:00.451Z,22.30
2019-05-10T10:26:29.134Z,22.10
2019-05-10T10:29:00.150Z,21.50
2019-05-10T10:31:33.096Z,21.00
2019-05-10T10:34:00.388Z,20.40
2019-05-10T10:38:56.052Z,20.10
2019-05-10T10:41:27.377Z,20.20
2019-05-10T10:43:54.608Z,20.10
2019-05-10T10:48:51.541Z,19.70
2019-05-10T10:51:20.197Z,19.60
2019-05-10T10:53:48.617Z,19.50
2019-05-10T10:58:49.615Z,19.40
2019-05-10T11:01:23.569Z,19.20
2019-05-10T11:03:48.815Z,18.90
2019-05-10T11:06:16.701Z,18.40
2019-05-10T11:08:45.143Z,17.90
2019-05-10T11:11:13.545Z,17.50
2019-05-10T11:13:45.939Z,17.10
2019-05-10T11:16:15.751Z,16.70
2019-05-10T11:18:42.268Z,16.20
2019-05-10T11:21:11.276Z,16.10
2019-05-10T11:23:42.022Z,16.30
2019-05-10T11:26:10.878Z,16.50
2019-05-10T11:28:43.871Z,16.40
2019-05-10T11:33:41.496Z,16.00
2019-05-10T11:36:11.484Z,15.50
2019-05-10T11:41:13.617Z,15.20
2019-05-10T11:46:11.574Z,15.00
2019-05-10T11:53:55.534Z,15.20
2019-05-10T12:01:22.127Z,15.20
2019-05-10T12:06:17.838Z,15.50
2019-05-10T12:08:46.256Z,15.70
2019-05-10T12:11:27.759Z,16.00
2019-05-10T12:13:44.788Z,16.40
2019-05-10T12:16:16.792Z,16.60
2019-05-10T12:19:05.528Z,16.70
2019-05-10T12:21:13.510Z,16.60
2019-05-10T12:23:50.142Z,16.60
2019-05-10T12:28:41.830Z,16.30
2019-05-10T12:31:13.423Z,16.20
2019-05-10T12:36:21.332Z,16.10
2019-05-10T12:38:40.398Z,16.10
2019-05-10T12:41:08.813Z,16.20
2019-05-10T12:43:37.216Z,16.40
2019-05-10T12:48:35.847Z,16.20
2019-05-10T12:51:08.257Z,16.10
2019-05-10T12:53:36.724Z,16.30
2019-05-10T12:56:04.581Z,16.30
2019-05-10T12:58:32.977Z,16.30
2019-05-10T13:01:01.399Z,16.40
2019-05-10T13:03:31.428Z,16.50
2019-05-10T13:05:59.925Z,16.40
2019-05-10T13:08:28.346Z,16.60
2019-05-10T13:10:56.757Z,16.80
2019-05-10T13:13:29.837Z,16.80
2019-05-10T13:15:55.357Z,16.70
2019-05-10T13:20:53.572Z,16.40
2019-05-10T13:23:21.998Z,16.40
2019-05-10T13:28:18.477Z,15.80
2019-05-10T13:33:27.728Z,15.60
2019-05-10T13:38:13.169Z,15.40
2019-05-10T13:43:11.389Z,15.20
2019-05-10T13:45:39.876Z,15.20
2019-05-10T13:48:08.297Z,15.30
2019-05-10T13:50:36.724Z,15.30
2019-05-10T13:53:05.189Z,15.30
2019-05-10T13:55:33.629Z,15.30
2019-05-10T14:00:34.495Z,15.30
2019-05-10T14:03:04.910Z,15.30
2019-05-10T14:05:30.524Z,15.30
2019-05-10T14:07:58.931Z,15.30
2019-05-10T14:13:01.942Z,15.50
2019-05-10T14:15:25.557Z,15.60
2019-05-10T14:17:53.954Z,15.70
2019-05-10T14:22:55.618Z,16.00
2019-05-10T14:25:22.372Z,16.20
2019-05-10T14:30:19.308Z,16.30
2019-05-10T14:32:47.705Z,16.30
2019-05-10T14:37:48.022Z,16.10
2019-05-10T14:40:16.740Z,16.00
2019-05-10T14:42:46.446Z,15.90
2019-05-10T14:47:47.967Z,16.00
2019-05-10T14:50:19.321Z,16.10
2019-05-10T14:52:44.443Z,16.00
2019-05-10T14:55:13.077Z,16.00
2019-05-10T15:02:40.160Z,15.80
2019-05-10T15:05:15.478Z,15.80
2019-05-10T15:07:38.897Z,15.70
2019-05-10T15:10:08.054Z,15.80
2019-05-10T15:12:36.488Z,15.90
2019-05-10T15:15:06.408Z,16.10
2019-05-10T15:17:34.837Z,16.10
2019-05-10T15:20:05.089Z,16.00
2019-05-10T15:22:33.503Z,16.10
2019-05-10T15:25:01.909Z,16.00
2019-05-10T15:27:30.322Z,16.00
2019-05-10T15:35:06.520Z,16.00
2019-05-10T15:39:54.918Z,16.00
2019-05-10T15:44:51.436Z,16.00
2019-05-10T15:49:49.660Z,15.90
2019-05-10T15:52:18.316Z,15.80
2019-05-10T15:54:47.270Z,15.70
2019-05-10T15:57:20.281Z,15.60
2019-05-10T15:59:50.660Z,15.70
2019-05-10T16:04:44.382Z,15.70
2019-05-10T16:09:42.596Z,15.60
2019-05-10T16:12:11.009Z,15.60
2019-05-10T16:14:41.137Z,15.50
2019-05-10T16:17:10.356Z,15.40
2019-05-10T16:19:39.696Z,15.20
2019-05-10T16:22:08.115Z,15.10
2019-05-10T16:24:36.521Z,15.10
2019-05-10T16:27:04.960Z,15.00
2019-05-10T16:29:39.335Z,15.00
2019-05-10T16:32:03.564Z,14.90
2019-05-10T16:34:32.769Z,14.90
2019-05-10T16:37:02.112Z,14.90
2019-05-10T16:41:58.620Z,14.90
2019-05-10T16:46:55.098Z,14.80
2019-05-10T16:49:23.529Z,14.80
2019-05-10T16:54:25.338Z,14.80
2019-05-10T16:56:51.708Z,14.80
2019-05-10T16:59:24.283Z,14.80
2019-05-10T17:01:50.404Z,14.80
2019-05-10T17:04:18.828Z,14.70
2019-05-10T17:06:47.982Z,14.80
2019-05-10T17:11:46.878Z,14.80
2019-05-10T17:14:17.880Z,14.80
2019-05-10T17:16:49.615Z,14.80
2019-05-10T17:19:17.304Z,14.90
2019-05-10T17:21:45.708Z,14.80
2019-05-10T17:24:18.730Z,14.80
2019-05-10T17:26:44.269Z,14.80
2019-05-10T17:29:14.770Z,14.70
2019-05-10T17:31:45.658Z,14.70
2019-05-10T17:34:22.141Z,14.70
2019-05-10T17:36:43.073Z,14.60
2019-05-10T17:44:07.670Z,14.50
2019-05-10T17:46:36.064Z,14.40
2019-05-10T17:49:04.484Z,14.30
2019-05-10T17:51:32.886Z,14.30
2019-05-10T17:54:03.561Z,14.30
2019-05-10T17:59:05.668Z,14.20
2019-05-10T18:01:31.385Z,14.20
2019-05-10T18:06:27.874Z,14.10
2019-05-10T18:08:56.371Z,14.10
2019-05-10T18:11:24.840Z,14.10
2019-05-10T18:13:53.254Z,14.00
2019-05-10T18:16:21.678Z,13.90
2019-05-10T18:21:22.096Z,13.70
2019-05-10T18:23:52.701Z,13.70
2019-05-10T18:26:18.469Z,13.60
2019-05-10T18:28:47.617Z,13.60
2019-05-10T18:33:51.189Z,13.50
2019-05-10T18:38:42.389Z,13.30
2019-05-10T18:41:11.838Z,13.30
2019-05-10T18:48:38.273Z,13.30
2019-05-10T18:53:34.764Z,13.30
2019-05-10T18:56:03.172Z,13.40
2019-05-10T18:58:31.747Z,13.30
2019-05-10T19:01:02.117Z,13.30
2019-05-10T19:03:33.865Z,13.20
2019-05-10T19:06:04.114Z,13.30
2019-05-10T19:08:30.673Z,13.30
2019-05-10T19:10:59.096Z,13.20
2019-05-10T19:15:58.438Z,13.20
2019-05-10T19:20:55.221Z,13.20
2019-05-10T19:25:53.980Z,13.20
2019-05-10T19:28:26.802Z,13.20
2019-05-10T19:30:52.873Z,13.20
2019-05-10T19:33:22.406Z,13.20
2019-05-10T19:40:46.993Z,13.00
2019-05-10T19:43:21.400Z,13.00
2019-05-10T19:45:45.554Z,13.00
2019-05-10T19:48:13.948Z,12.90
2019-05-10T19:53:10.444Z,12.90
2019-05-10T20:05:31.325Z,12.80
2019-05-10T20:07:59.773Z,12.80
2019-05-10T20:10:28.188Z,12.90
2019-05-10T20:12:56.607Z,12.80
2019-05-10T20:17:53.190Z,12.70
2019-05-10T20:20:21.653Z,12.50
2019-05-10T20:22:50.041Z,12.40
2019-05-10T20:25:18.447Z,12.40
2019-05-10T20:27:46.876Z,12.30
2019-05-10T20:35:11.729Z,12.40
2019-05-10T20:37:40.157Z,12.40
2019-05-10T20:40:09.109Z,12.50
2019-05-10T20:42:37.525Z,12.40
2019-05-10T20:47:35.749Z,12.50
2019-05-10T20:50:05.691Z,12.50
2019-05-10T20:55:02.310Z,12.40
2019-05-10T20:57:30.826Z,12.30
2019-05-10T21:02:27.321Z,12.10
2019-05-10T21:07:23.821Z,11.80
2019-05-10T21:09:52.232Z,11.70
2019-05-10T21:12:20.643Z,11.70
2019-05-10T21:17:17.217Z,11.80
2019-05-10T21:19:45.612Z,11.70
2019-05-10T21:22:14.036Z,11.50
2019-05-10T21:24:42.445Z,11.50
2019-05-10T21:27:10.849Z,11.50
2019-05-10T21:29:39.266Z,11.60
2019-05-10T21:32:07.736Z,11.70
2019-05-10T21:39:32.398Z,11.90
2019-05-10T21:42:20.203Z,12.00
2019-05-10T21:44:48.593Z,12.00
2019-05-10T21:47:17.064Z,12.00
2019-05-10T21:49:45.497Z,12.00
2019-05-10T21:54:42.032Z,12.10
2019-05-10T21:57:10.425Z,12.10
2019-05-10T21:59:38.894Z,12.10
2019-05-10T22:02:07.433Z,12.10
2019-05-10T22:04:35.833Z,12.00
2019-05-10T22:07:04.360Z,12.00
2019-05-10T22:09:32.961Z,12.00
2019-05-10T22:12:01.774Z,12.00
2019-05-10T22:14:30.288Z,12.00
2019-05-10T22:16:58.750Z,12.00
2019-05-10T22:19:27.187Z,12.10
2019-05-10T22:21:55.661Z,12.10
2019-05-10T22:24:24.151Z,12.10
2019-05-10T22:26:52.596Z,12.20
2019-05-10T22:34:17.591Z,12.20
2019-05-10T22:36:46.025Z,12.10
2019-05-10T22:39:14.554Z,12.10
2019-05-10T22:41:42.995Z,12.10
2019-05-10T22:44:11.444Z,12.10
2019-05-10T22:46:39.893Z,12.10
2019-05-10T22:49:08.375Z,12.00
2019-05-10T22:51:36.891Z,12.10
2019-05-10T22:59:01.647Z,12.20
2019-05-10T23:03:58.216Z,12.20
2019-05-10T23:06:26.648Z,12.10
2019-05-10T23:08:55.117Z,12.00
2019-05-10T23:11:23.565Z,11.90
2019-05-10T23:13:52.020Z,11.90
2019-05-10T23:16:20.540Z,11.70
2019-05-10T23:18:48.992Z,11.60
2019-05-10T23:21:17.435Z,11.50
2019-05-10T23:23:45.885Z,11.40
2019-05-10T23:26:14.612Z,11.30
2019-05-10T23:28:43.060Z,11.30
2019-05-10T23:31:11.522Z,11.30
2019-05-10T23:33:40.044Z,11.40
2019-05-10T23:36:08.492Z,11.50
2019-05-10T23:38:37.008Z,11.50
2019-05-10T23:41:05.454Z,11.60
2019-05-10T23:43:33.892Z,11.70
2019-05-10T23:46:02.353Z,11.70
2019-05-10T23:48:30.863Z,11.80
2019-05-10T23:50:59.314Z,11.90
2019-05-10T23:53:27.772Z,11.90
2019-05-10T23:55:56.291Z,11.80
2019-05-10T23:58:24.743Z,11.70
